Minerva Concert — SVWC — position and weather

sailwx.info

Track history (hours):
 
Tides and Currents Weather Stations Pressure Air Temp Water Temp Dewpoint Dewpoint Depression Visibility Wind Speed Wind Dir Waves Ship Positions

Minerva Concert

Last reported at 2014-Aug-30 10:28 UTC. Time now 2014-Aug-30 12:32 UTC.
Position N 51°58' E 004°04'.

Length 241 m; draft 14.2 m.

Type: Tanker. MMSI: 240110000.

Date/timePositionNaut miles runAvg speedWind from/ knotsBaromVisibWave heightAir tempDewpointWater temp
2014-Aug-30 10:28N 51°58' E 004°04'0 0.0
2014-Aug-30 09:10N 51°58' E 004°04'0 0.0
2014-Aug-30 08:31N 51°58' E 004°04'0 0.0
2014-Aug-30 07:13N 51°58' E 004°04'0 0.0
2014-Aug-30 06:31N 51°58' E 004°04'0 0.1
2014-Aug-30 05:33N 51°58' E 004°04'3 3.4
2014-Aug-30 04:33N 52°00' E 004°00'8 7.6
2014-Aug-30 03:33N 51°59' E 003°48'9 8.7
2014-Aug-30 02:33N 51°57' E 003°34'4 3.8
2014-Aug-30 01:32N 51°55' E 003°29'0 0.2
2014-Aug-30 00:32N 51°55' E 003°29'0 0.1
2014-Aug-29 23:32N 51°55' E 003°29'74 3.7
2014-Aug-29 03:22N 53°09' E 003°23'1111.6
2014-Aug-29 02:26N 53°20' E 003°29'1112.1
2014-Aug-29 01:33N 53°30' E 003°34'1412.2
2014-Aug-29 00:24N 53°43' E 003°41'2411.7
2014-Aug-28 22:23N 53°58' E 004°11'25311.6
2014-Aug-28 00:32N 57°26' E 008°27'1711.4
2014-Aug-27 23:04N 57°34' E 008°54'611.4
2014-Aug-27 22:33N 57°37' E 009°04'1211.4
2014-Aug-27 21:30N 57°43' E 009°24'1111.4
2014-Aug-27 20:33N 57°46' E 009°43'1111.0
2014-Aug-27 19:31N 57°49' E 010°03'1212.0
2014-Aug-27 18:33N 57°49' E 010°25'1111.1
2014-Aug-27 17:33N 57°47' E 010°45'1010.5
2014-Aug-27 16:33N 57°41' E 011°02'1211.9
2014-Aug-27 15:33N 57°33' E 011°18'1111.3
2014-Aug-27 14:32N 57°23' E 011°29'1211.8
2014-Aug-27 13:33N 57°12' E 011°36'1211.7
2014-Aug-27 12:32N 57°01' E 011°44'1111.7
2014-Aug-27 11:33N 56°50' E 011°51'1110.5
2014-Aug-27 10:33N 56°40' E 011°48'1212.2
2014-Aug-27 09:32N 56°29' E 011°36'1211.9
2014-Aug-27 08:33N 56°19' E 011°25'1511.5
2014-Aug-27 07:13N 56°06' E 011°10'3210.7
2014-Aug-27 04:11N 55°36' E 010°49'711.5
2014-Aug-27 03:33N 55°29' E 010°54'1510.2
2014-Aug-27 02:05N 55°16' E 011°05'44 8.0
2014-Aug-26 20:33N 54°32' E 011°23'1211.8
2014-Aug-26 19:33N 54°28' E 011°42'1211.8
2014-Aug-26 18:33N 54°26' E 012°02'9 9.2
2014-Aug-26 17:33N 54°32' E 012°14'9 9.1
2014-Aug-26 16:33N 54°39' E 012°24'1010.0
2014-Aug-26 15:33N 54°44' E 012°39'10 8.8
2014-Aug-26 14:26N 54°49' E 012°54'1011.8
2014-Aug-26 13:33N 54°53' E 013°10'1211.7
2014-Aug-26 12:33N 54°57' E 013°30'2511.5
2014-Aug-26 10:22N 55°08' E 014°10'1311.6
2014-Aug-26 09:14N 55°18' E 014°24'811.7
2014-Aug-26 08:33N 55°24' E 014°32'1211.3
2014-Aug-26 07:27N 55°31' E 014°51'1211.7
2014-Aug-26 06:28N 55°36' E 015°09'33411.1
2014-Aug-25 00:27N 59°31' E 022°31'1112.4
2014-Aug-24 23:33N 59°34' E 022°53'1212.4
2014-Aug-24 22:33N 59°37' E 023°16'1212.5
2014-Aug-24 21:33N 59°41' E 023°40'1212.2
2014-Aug-24 20:33N 59°44' E 024°03'1212.0
2014-Aug-24 19:33N 59°47' E 024°26'2912.0
2014-Aug-24 17:09N 59°54' E 025°22'812.3
2014-Aug-24 16:30N 59°54' E 025°38'1312.3
2014-Aug-24 15:28N 59°57' E 026°03'1312.2
2014-Aug-24 14:25N 60°01' E 026°28'1112.0
2014-Aug-24 13:31N 60°00' E 026°49'1111.4
2014-Aug-24 12:32N 60°02' E 027°12'  
2014-Aug-22 04:15N 59°59' E 027°09'7 9.7
2014-Aug-22 03:30N 59°58' E 026°55'1010.2
2014-Aug-22 02:33N 59°59' E 026°35'2410.4
2014-Aug-22 00:12N 59°52' E 025°49'2910.9
2014-Aug-21 21:33N 59°46' E 024°53'1110.9
2014-Aug-21 20:33N 59°44' E 024°31'1110.6
2014-Aug-21 19:33N 59°41' E 024°11'8 7.9
2014-Aug-21 18:32N 59°39' E 023°56'9 7.2
2014-Aug-21 17:19N 59°36' E 023°40'5 7.1
2014-Aug-21 16:33N 59°34' E 023°30'7 7.3
2014-Aug-21 15:33N 59°32' E 023°16'  
Track history (hours):
 
Tides and Currents Weather Stations Pressure Air Temp Water Temp Dewpoint Dewpoint Depression Visibility Wind Speed Wind Dir Waves Ship Positions

Minerva Concert

Last reported at 2014-Aug-30 10:28 UTC. Time now 2014-Aug-30 12:32 UTC.
Position N 51°58' E 004°04'.

Length 241 m; draft 14.2 m.

Type: Tanker. MMSI: 240110000.

Date/timePositionNaut miles runAvg speedWind from/ knotsBaromVisibWave heightAir tempDewpointWater temp
2014-Aug-30 10:28N 51°58' E 004°04'0 0.0
2014-Aug-30 09:10N 51°58' E 004°04'0 0.0
2014-Aug-30 08:31N 51°58' E 004°04'0 0.0
2014-Aug-30 07:13N 51°58' E 004°04'0 0.0
2014-Aug-30 06:31N 51°58' E 004°04'0 0.1
2014-Aug-30 05:33N 51°58' E 004°04'3 3.4
2014-Aug-30 04:33N 52°00' E 004°00'8 7.6
2014-Aug-30 03:33N 51°59' E 003°48'9 8.7
2014-Aug-30 02:33N 51°57' E 003°34'4 3.8
2014-Aug-30 01:32N 51°55' E 003°29'0 0.2
2014-Aug-30 00:32N 51°55' E 003°29'0 0.1
2014-Aug-29 23:32N 51°55' E 003°29'74 3.7
2014-Aug-29 03:22N 53°09' E 003°23'1111.6
2014-Aug-29 02:26N 53°20' E 003°29'1112.1
2014-Aug-29 01:33N 53°30' E 003°34'1412.2
2014-Aug-29 00:24N 53°43' E 003°41'2411.7
2014-Aug-28 22:23N 53°58' E 004°11'25311.6
2014-Aug-28 00:32N 57°26' E 008°27'1711.4
2014-Aug-27 23:04N 57°34' E 008°54'611.4
2014-Aug-27 22:33N 57°37' E 009°04'1211.4
2014-Aug-27 21:30N 57°43' E 009°24'1111.4
2014-Aug-27 20:33N 57°46' E 009°43'1111.0
2014-Aug-27 19:31N 57°49' E 010°03'1212.0
2014-Aug-27 18:33N 57°49' E 010°25'1111.1
2014-Aug-27 17:33N 57°47' E 010°45'1010.5
2014-Aug-27 16:33N 57°41' E 011°02'1211.9
2014-Aug-27 15:33N 57°33' E 011°18'1111.3
2014-Aug-27 14:32N 57°23' E 011°29'1211.8
2014-Aug-27 13:33N 57°12' E 011°36'1211.7
2014-Aug-27 12:32N 57°01' E 011°44'1111.7
2014-Aug-27 11:33N 56°50' E 011°51'1110.5
2014-Aug-27 10:33N 56°40' E 011°48'1212.2
2014-Aug-27 09:32N 56°29' E 011°36'1211.9
2014-Aug-27 08:33N 56°19' E 011°25'1511.5
2014-Aug-27 07:13N 56°06' E 011°10'3210.7
2014-Aug-27 04:11N 55°36' E 010°49'711.5
2014-Aug-27 03:33N 55°29' E 010°54'1510.2
2014-Aug-27 02:05N 55°16' E 011°05'44 8.0
2014-Aug-26 20:33N 54°32' E 011°23'1211.8
2014-Aug-26 19:33N 54°28' E 011°42'1211.8
2014-Aug-26 18:33N 54°26' E 012°02'9 9.2
2014-Aug-26 17:33N 54°32' E 012°14'9 9.1
2014-Aug-26 16:33N 54°39' E 012°24'1010.0
2014-Aug-26 15:33N 54°44' E 012°39'10 8.8
2014-Aug-26 14:26N 54°49' E 012°54'1011.8
2014-Aug-26 13:33N 54°53' E 013°10'1211.7
2014-Aug-26 12:33N 54°57' E 013°30'2511.5
2014-Aug-26 10:22N 55°08' E 014°10'1311.6
2014-Aug-26 09:14N 55°18' E 014°24'811.7
2014-Aug-26 08:33N 55°24' E 014°32'1211.3
2014-Aug-26 07:27N 55°31' E 014°51'1211.7
2014-Aug-26 06:28N 55°36' E 015°09'33411.1
2014-Aug-25 00:27N 59°31' E 022°31'1112.4
2014-Aug-24 23:33N 59°34' E 022°53'1212.4
2014-Aug-24 22:33N 59°37' E 023°16'1212.5
2014-Aug-24 21:33N 59°41' E 023°40'1212.2
2014-Aug-24 20:33N 59°44' E 024°03'1212.0
2014-Aug-24 19:33N 59°47' E 024°26'2912.0
2014-Aug-24 17:09N 59°54' E 025°22'812.3
2014-Aug-24 16:30N 59°54' E 025°38'1312.3
2014-Aug-24 15:28N 59°57' E 026°03'1312.2
2014-Aug-24 14:25N 60°01' E 026°28'1112.0
2014-Aug-24 13:31N 60°00' E 026°49'1111.4
2014-Aug-24 12:32N 60°02' E 027°12'  
2014-Aug-22 04:15N 59°59' E 027°09'7 9.7
2014-Aug-22 03:30N 59°58' E 026°55'1010.2
2014-Aug-22 02:33N 59°59' E 026°35'2410.4
2014-Aug-22 00:12N 59°52' E 025°49'2910.9
2014-Aug-21 21:33N 59°46' E 024°53'1110.9
2014-Aug-21 20:33N 59°44' E 024°31'1110.6
2014-Aug-21 19:33N 59°41' E 024°11'8 7.9
2014-Aug-21 18:32N 59°39' E 023°56'9 7.2
2014-Aug-21 17:19N 59°36' E 023°40'5 7.1
2014-Aug-21 16:33N 59°34' E 023°30'7 7.3
2014-Aug-21 15:33N 59°32' E 023°16'  

Dump ship's entire track history